createdAt,value
2023-03-06T00:00:17.135Z,40.59
2023-03-06T00:03:01.899Z,39.89
2023-03-06T00:05:46.944Z,39.74
2023-03-06T00:08:31.703Z,39.66
2023-03-06T00:11:16.567Z,39.42
2023-03-06T00:14:01.424Z,38.80
2023-03-06T00:16:46.374Z,39.31
2023-03-06T00:19:31.300Z,39.00
2023-03-06T00:22:16.089Z,39.59
2023-03-06T00:25:01.090Z,39.23
2023-03-06T00:27:45.995Z,40.09
2023-03-06T00:30:31.478Z,39.12
2023-03-06T00:33:16.390Z,39.47
2023-03-06T00:36:01.376Z,39.17
2023-03-06T00:38:46.261Z,39.69
2023-03-06T00:41:31.220Z,39.98
2023-03-06T00:44:16.075Z,40.70
2023-03-06T00:47:00.844Z,40.77
2023-03-06T00:49:45.904Z,40.24
2023-03-06T00:52:30.749Z,41.33
2023-03-06T00:55:15.773Z,42.20
2023-03-06T00:58:00.591Z,41.02
2023-03-06T01:00:45.506Z,41.50
2023-03-06T01:03:30.780Z,42.38
2023-03-06T01:06:15.541Z,41.65
2023-03-06T01:09:00.590Z,41.71
2023-03-06T01:11:45.511Z,41.89
2023-03-06T01:14:30.536Z,41.82
2023-03-06T01:17:15.317Z,41.80
2023-03-06T01:20:00.307Z,42.21
2023-03-06T01:22:45.169Z,42.72
2023-03-06T01:25:30.180Z,42.03
2023-03-06T01:28:15.043Z,42.99
2023-03-06T01:30:59.844Z,42.46
2023-03-06T01:33:44.705Z,42.22
2023-03-06T01:36:29.563Z,42.34
2023-03-06T01:39:14.339Z,42.44
2023-03-06T01:41:59.109Z,42.92
2023-03-06T01:44:44.151Z,41.88
2023-03-06T01:47:29.079Z,42.40
2023-03-06T01:50:14.176Z,42.04
2023-03-06T01:52:59.198Z,41.60
2023-03-06T01:55:44.023Z,41.39
2023-03-06T01:58:28.921Z,41.73
2023-03-06T02:01:13.862Z,41.70
2023-03-06T02:03:58.980Z,41.83
2023-03-06T02:06:43.831Z,41.12
2023-03-06T02:09:28.597Z,41.81
2023-03-06T02:12:13.488Z,41.62
2023-03-06T02:14:58.546Z,42.15
2023-03-06T02:17:43.372Z,41.76
2023-03-06T02:20:28.131Z,42.05
2023-03-06T02:23:13.051Z,42.17
2023-03-06T02:25:57.942Z,41.63
2023-03-06T02:28:42.954Z,41.30
2023-03-06T02:31:27.746Z,41.15
2023-03-06T02:34:12.704Z,40.89
2023-03-06T02:36:57.533Z,41.59
2023-03-06T02:39:42.505Z,41.68
2023-03-06T02:42:27.475Z,42.03
2023-03-06T02:45:12.452Z,40.61
2023-03-06T02:47:57.346Z,40.55
2023-03-06T02:50:42.403Z,41.03
2023-03-06T02:53:27.428Z,41.08
2023-03-06T02:56:12.165Z,40.10
2023-03-06T02:58:57.017Z,40.01
2023-03-06T03:01:41.914Z,40.78
2023-03-06T03:04:26.987Z,40.25
2023-03-06T03:07:11.943Z,39.35
2023-03-06T03:09:56.730Z,40.37
2023-03-06T03:12:41.860Z,40.57
2023-03-06T03:15:26.638Z,40.07
2023-03-06T03:18:11.580Z,40.29
2023-03-06T03:20:56.344Z,40.10
2023-03-06T03:23:41.201Z,40.18
2023-03-06T03:26:25.949Z,39.91
2023-03-06T03:29:10.923Z,40.91
2023-03-06T03:31:55.948Z,41.53
2023-03-06T03:34:40.829Z,40.78
2023-03-06T03:37:25.824Z,40.19
2023-03-06T03:40:10.699Z,40.76
2023-03-06T03:42:55.518Z,40.45
2023-03-06T03:45:40.430Z,40.15
2023-03-06T03:48:25.501Z,39.87
2023-03-06T03:51:10.312Z,39.56
2023-03-06T03:53:55.299Z,39.87
2023-03-06T03:56:40.182Z,40.07
2023-03-06T03:59:24.910Z,41.27
2023-03-06T04:02:09.941Z,41.25
2023-03-06T04:04:54.799Z,41.89
2023-03-06T04:07:39.682Z,40.81
2023-03-06T04:10:24.524Z,41.03
2023-03-06T04:13:10.195Z,41.23
2023-03-06T04:15:55.316Z,41.21
2023-03-06T04:18:40.067Z,41.46
2023-03-06T04:21:25.069Z,41.08
2023-03-06T04:24:09.856Z,40.85
2023-03-06T04:26:54.772Z,41.52
2023-03-06T04:29:39.674Z,42.31
2023-03-06T04:32:24.684Z,41.96
2023-03-06T04:35:09.433Z,42.15
2023-03-06T04:37:54.259Z,42.84
2023-03-06T04:40:39.047Z,41.43
2023-03-06T04:43:23.973Z,42.03
2023-03-06T04:46:08.988Z,42.05
2023-03-06T04:48:53.836Z,41.83
2023-03-06T04:51:38.659Z,41.65
2023-03-06T04:54:23.549Z,41.74
2023-03-06T04:57:08.579Z,41.86
2023-03-06T04:59:53.376Z,42.59
2023-03-06T05:02:38.342Z,42.63
2023-03-06T05:05:23.171Z,43.32
2023-03-06T05:08:08.029Z,41.94
2023-03-06T05:10:52.960Z,42.10
2023-03-06T05:13:38.005Z,42.85
2023-03-06T05:16:22.828Z,43.43
2023-03-06T05:19:07.609Z,42.94
2023-03-06T05:21:52.672Z,43.01
2023-03-06T05:24:37.428Z,42.80
2023-03-06T05:27:22.199Z,43.21
2023-03-06T05:30:07.084Z,42.19
2023-03-06T05:32:52.134Z,42.99
2023-03-06T05:35:36.975Z,43.94
2023-03-06T05:38:21.786Z,43.80
2023-03-06T05:41:06.741Z,42.96
2023-03-06T05:43:51.748Z,42.71
2023-03-06T05:46:36.827Z,42.95
2023-03-06T05:49:21.564Z,43.13
2023-03-06T05:52:06.523Z,43.15
2023-03-06T05:54:51.367Z,42.55
2023-03-06T05:57:36.273Z,41.86
2023-03-06T06:00:21.254Z,42.59
2023-03-06T06:03:06.148Z,42.41
2023-03-06T06:05:51.015Z,43.41
2023-03-06T06:08:35.845Z,42.47
2023-03-06T06:11:20.908Z,42.99
2023-03-06T06:14:05.753Z,43.09
2023-03-06T06:16:50.828Z,43.59
2023-03-06T06:19:35.681Z,43.98
2023-03-06T06:22:20.581Z,45.04
2023-03-06T06:25:05.392Z,43.40
2023-03-06T06:27:50.210Z,42.53
2023-03-06T06:30:35.188Z,43.04
2023-03-06T06:33:20.091Z,43.02
2023-03-06T06:36:05.086Z,42.09
2023-03-06T06:38:49.851Z,42.20
2023-03-06T06:44:40.045Z,42.20
2023-03-06T06:47:25.870Z,42.37
2023-03-06T06:50:10.826Z,42.80
2023-03-06T06:52:55.570Z,42.14
2023-03-06T06:55:40.596Z,42.82
2023-03-06T06:58:25.355Z,42.46
2023-03-06T07:01:10.270Z,41.92
2023-03-06T07:03:55.267Z,41.68
2023-03-06T07:06:39.977Z,42.30
2023-03-06T07:09:24.919Z,42.25
2023-03-06T07:12:09.706Z,40.69
2023-03-06T07:14:54.749Z,41.06
2023-03-06T07:17:39.608Z,40.13
2023-03-06T07:20:24.402Z,41.05
2023-03-06T07:23:09.278Z,40.60
2023-03-06T07:25:54.107Z,40.51
2023-03-06T07:28:51.634Z,40.23
2023-03-06T07:31:37.151Z,39.87
2023-03-06T07:34:22.029Z,40.84
2023-03-06T07:37:07.015Z,40.90
2023-03-06T07:39:52.072Z,40.13
2023-03-06T07:42:36.906Z,40.37
2023-03-06T07:45:21.728Z,39.87
2023-03-06T07:48:06.608Z,40.85
2023-03-06T07:50:51.287Z,39.52
2023-03-06T07:53:36.221Z,40.53
2023-03-06T07:56:21.346Z,40.33
2023-03-06T07:59:06.292Z,41.19
2023-03-06T08:01:51.184Z,40.76
2023-03-06T08:04:36.263Z,41.72
2023-03-06T08:07:21.065Z,41.96
2023-03-06T08:10:05.850Z,41.53
2023-03-06T08:12:50.597Z,42.18
2023-03-06T08:15:35.517Z,43.42
2023-03-06T08:18:20.308Z,42.28
2023-03-06T08:21:05.236Z,41.33
2023-03-06T08:23:50.143Z,41.92
2023-03-06T08:26:34.956Z,41.46
2023-03-06T08:29:20.090Z,41.55
2023-03-06T08:32:04.835Z,41.41
2023-03-06T08:34:49.696Z,39.87
2023-03-06T08:37:34.635Z,40.07
2023-03-06T08:40:19.502Z,40.53
2023-03-06T08:43:04.333Z,39.62
2023-03-06T08:45:49.376Z,40.30
2023-03-06T08:48:34.721Z,40.39
2023-03-06T08:51:19.562Z,39.82
2023-03-06T08:54:04.557Z,39.66
2023-03-06T08:56:49.565Z,40.25
2023-03-06T08:59:34.562Z,39.68
2023-03-06T09:02:19.446Z,38.98
2023-03-06T09:05:04.340Z,39.55
2023-03-06T09:07:49.170Z,39.68
2023-03-06T09:10:33.965Z,39.10
2023-03-06T09:13:18.914Z,39.79
2023-03-06T09:16:03.657Z,39.67
2023-03-06T09:18:48.631Z,39.79
2023-03-06T09:21:33.462Z,39.42
2023-03-06T09:24:18.358Z,39.80
2023-03-06T09:27:03.226Z,39.01
2023-03-06T09:29:48.144Z,38.12
2023-03-06T09:32:33.083Z,39.00
2023-03-06T09:35:18.429Z,39.28
2023-03-06T09:38:03.304Z,38.62
2023-03-06T09:40:48.039Z,39.43
2023-03-06T09:43:32.953Z,39.17
2023-03-06T09:46:17.778Z,39.17
2023-03-06T09:49:02.556Z,38.74
2023-03-06T09:51:47.449Z,39.26
2023-03-06T09:54:32.257Z,38.63
2023-03-06T09:57:16.995Z,38.83
2023-03-06T10:00:04.325Z,38.73
2023-03-06T10:02:50.036Z,37.89
2023-03-06T10:05:35.327Z,38.63
2023-03-06T10:08:20.115Z,38.63
2023-03-06T10:11:04.922Z,37.28
2023-03-06T10:13:49.735Z,38.09
2023-03-06T10:16:34.516Z,38.59
2023-03-06T10:19:19.445Z,38.40
2023-03-06T10:22:04.348Z,38.16
2023-03-06T10:24:49.168Z,38.06
2023-03-06T10:27:34.171Z,38.35
2023-03-06T10:30:18.930Z,38.42
2023-03-06T10:33:03.872Z,37.56
2023-03-06T10:35:49.148Z,38.40
2023-03-06T10:38:34.100Z,37.44
2023-03-06T10:41:18.933Z,37.04
2023-03-06T10:44:03.713Z,38.39
2023-03-06T10:46:48.839Z,38.11
2023-03-06T10:49:34.080Z,37.36
2023-03-06T10:52:19.166Z,37.71
2023-03-06T10:55:04.081Z,37.65
2023-03-06T10:57:49.045Z,38.18
2023-03-06T11:00:34.045Z,37.42
2023-03-06T11:03:19.023Z,36.91
2023-03-06T11:06:04.032Z,36.76
2023-03-06T11:08:48.898Z,37.42
2023-03-06T11:11:37.766Z,37.38
2023-03-06T11:14:23.304Z,37.28
2023-03-06T11:17:08.305Z,37.14
2023-03-06T11:19:53.294Z,36.51
2023-03-06T11:22:38.114Z,36.00
2023-03-06T11:25:22.989Z,36.32
2023-03-06T11:28:07.859Z,35.36
2023-03-06T11:30:52.925Z,35.60
2023-03-06T11:33:37.933Z,35.84
2023-03-06T11:36:22.788Z,34.50
2023-03-06T11:39:07.693Z,33.15
2023-03-06T11:41:52.586Z,34.44
2023-03-06T11:44:37.656Z,33.92
2023-03-06T11:47:22.470Z,32.88
2023-03-06T11:50:07.491Z,32.64
2023-03-06T11:52:52.267Z,32.03
2023-03-06T11:55:37.254Z,31.86
2023-03-06T11:58:22.209Z,32.77
2023-03-06T12:01:07.157Z,31.65
2023-03-06T12:03:52.224Z,32.72
2023-03-06T12:06:37.130Z,32.47
2023-03-06T12:09:21.981Z,38.10
2023-03-06T12:12:06.832Z,33.49
2023-03-06T12:14:51.824Z,33.11
2023-03-06T12:17:36.747Z,33.12
2023-03-06T12:20:21.787Z,31.58
2023-03-06T12:23:14.905Z,32.66
2023-03-06T12:26:01.072Z,34.63
2023-03-06T12:28:46.554Z,32.21
2023-03-06T12:31:32.018Z,32.81
2023-03-06T12:34:16.779Z,32.81
2023-03-06T12:37:01.856Z,32.83
2023-03-06T12:39:46.771Z,30.52
2023-03-06T12:42:31.661Z,32.05
2023-03-06T12:45:16.622Z,30.99
2023-03-06T12:48:01.599Z,30.77
2023-03-06T12:50:46.441Z,31.71
2023-03-06T12:53:31.317Z,30.75
2023-03-06T12:56:16.237Z,30.39
2023-03-06T12:59:01.156Z,30.32
2023-03-06T13:01:46.205Z,29.87
2023-03-06T13:04:31.034Z,29.52
2023-03-06T13:07:16.000Z,30.27
2023-03-06T13:10:01.005Z,28.42
2023-03-06T13:12:45.876Z,29.90
2023-03-06T13:15:30.740Z,29.20
2023-03-06T13:18:15.608Z,29.35
2023-03-06T13:21:00.678Z,30.11
2023-03-06T13:23:45.621Z,28.39
2023-03-06T13:26:30.478Z,28.00
2023-03-06T13:29:15.442Z,28.57
2023-03-06T13:32:00.485Z,28.73
2023-03-06T13:34:45.725Z,29.45
2023-03-06T13:37:30.508Z,29.68
2023-03-06T13:40:15.388Z,28.16
2023-03-06T13:43:00.096Z,28.59
2023-03-06T13:45:45.133Z,28.96
2023-03-06T13:48:43.823Z,29.47
2023-03-06T13:51:29.552Z,28.30
2023-03-06T13:54:14.327Z,27.47
2023-03-06T13:56:59.247Z,26.53
2023-03-06T13:59:44.131Z,28.02
2023-03-06T14:02:29.089Z,25.20
2023-03-06T14:05:13.941Z,23.36
2023-03-06T14:07:58.784Z,23.98
2023-03-06T14:10:43.792Z,25.53
2023-03-06T14:13:35.044Z,28.53
2023-03-06T14:16:23.244Z,28.74
2023-03-06T14:19:08.172Z,29.16
2023-03-06T14:21:53.048Z,28.21
2023-03-06T14:24:37.882Z,27.16
2023-03-06T14:27:22.866Z,25.89
2023-03-06T14:30:07.908Z,25.52
2023-03-06T14:32:52.762Z,25.72
2023-03-06T14:35:37.618Z,28.89
2023-03-06T14:38:22.591Z,29.85
2023-03-06T14:41:07.459Z,29.94
2023-03-06T14:43:52.419Z,28.99
2023-03-06T14:46:37.446Z,28.83
2023-03-06T14:49:22.243Z,23.96
2023-03-06T14:52:07.116Z,22.84
2023-03-06T14:54:51.832Z,20.16
2023-03-06T14:57:36.932Z,22.21
2023-03-06T15:00:21.750Z,20.33
2023-03-06T15:03:06.731Z,18.74
2023-03-06T15:05:51.980Z,18.43
2023-03-06T15:08:36.905Z,17.95
2023-03-06T15:11:21.773Z,17.61
2023-03-06T15:14:06.698Z,17.47
2023-03-06T15:16:51.583Z,18.06
2023-03-06T15:19:36.397Z,17.41
2023-03-06T15:22:21.677Z,17.75
2023-03-06T15:25:06.812Z,16.69
2023-03-06T15:27:51.608Z,16.90
2023-03-06T15:30:36.397Z,18.20
2023-03-06T15:33:21.252Z,19.85
2023-03-06T15:36:06.087Z,19.26
2023-03-06T15:38:50.861Z,19.57
2023-03-06T15:41:35.709Z,19.86
2023-03-06T15:44:20.549Z,18.42
2023-03-06T15:47:09.395Z,17.03
2023-03-06T15:49:54.555Z,15.97
2023-03-06T15:52:39.378Z,15.80
2023-03-06T15:55:24.370Z,15.71
2023-03-06T15:58:09.229Z,14.78
2023-03-06T16:00:54.110Z,13.56
2023-03-06T16:03:38.908Z,14.02
2023-03-06T16:06:23.841Z,13.64
2023-03-06T16:09:08.812Z,12.70
2023-03-06T16:11:53.788Z,12.43
2023-03-06T16:14:38.820Z,12.77
2023-03-06T16:17:23.531Z,11.89
2023-03-06T16:20:08.504Z,12.67
2023-03-06T16:22:53.408Z,17.19
2023-03-06T16:25:38.351Z,18.89
2023-03-06T16:28:23.280Z,16.07
2023-03-06T16:31:08.318Z,16.22
2023-03-06T16:33:53.109Z,14.46
2023-03-06T16:36:38.027Z,14.63
2023-03-06T16:39:23.034Z,14.70
2023-03-06T16:42:07.839Z,13.65
2023-03-06T16:44:52.962Z,13.81
2023-03-06T16:47:37.695Z,13.50
2023-03-06T16:50:22.774Z,13.70
2023-03-06T16:53:07.524Z,13.31
2023-03-06T16:55:52.564Z,13.28
2023-03-06T16:58:37.338Z,12.95
2023-03-06T17:01:22.315Z,12.47
2023-03-06T17:04:07.189Z,12.21
2023-03-06T17:06:52.036Z,12.64
2023-03-06T17:09:36.960Z,12.49
2023-03-06T17:12:21.721Z,11.33
2023-03-06T17:15:06.746Z,10.51
2023-03-06T17:17:51.695Z,10.72
2023-03-06T17:20:36.515Z,10.71
2023-03-06T17:23:21.337Z,11.90
2023-03-06T17:26:06.317Z,11.16
2023-03-06T17:28:51.265Z,11.04
2023-03-06T17:31:36.021Z,10.90
2023-03-06T17:34:23.042Z,11.90
2023-03-06T17:37:09.343Z,11.78
2023-03-06T17:39:54.188Z,11.24
2023-03-06T17:42:39.064Z,11.50
2023-03-06T17:45:24.155Z,11.65
2023-03-06T17:48:09.262Z,11.09
2023-03-06T17:50:54.100Z,10.86
2023-03-06T17:53:39.115Z,10.45
2023-03-06T17:56:24.041Z,10.39
2023-03-06T17:59:08.875Z,10.90
2023-03-06T18:01:53.875Z,12.00
2023-03-06T18:04:38.795Z,12.56
2023-03-06T18:07:23.765Z,12.19
2023-03-06T18:10:08.662Z,12.28
2023-03-06T18:12:53.761Z,11.12
2023-03-06T18:15:38.646Z,12.25
2023-03-06T18:18:23.518Z,12.26
2023-03-06T18:21:08.321Z,11.33
2023-03-06T18:23:53.132Z,11.74
2023-03-06T18:26:38.019Z,11.44
2023-03-06T18:29:22.980Z,11.53
2023-03-06T18:32:07.809Z,10.75
2023-03-06T18:34:52.711Z,12.87
2023-03-06T18:37:37.518Z,12.24
2023-03-06T18:40:24.781Z,10.90
2023-03-06T18:43:09.930Z,10.63
2023-03-06T18:45:54.945Z,10.57
2023-03-06T18:48:40.277Z,10.82
2023-03-06T18:51:25.254Z,11.48
2023-03-06T18:54:10.068Z,10.33
2023-03-06T18:56:55.055Z,10.68
2023-03-06T18:59:39.918Z,12.05
2023-03-06T19:02:24.763Z,11.83
2023-03-06T19:05:09.756Z,11.72
2023-03-06T19:07:54.641Z,11.74
2023-03-06T19:10:39.594Z,12.00
2023-03-06T19:13:24.492Z,11.72
2023-03-06T19:16:09.347Z,11.74
2023-03-06T19:18:54.118Z,11.48
2023-03-06T19:21:39.063Z,11.24
2023-03-06T19:24:23.960Z,11.57
2023-03-06T19:27:08.893Z,11.50
2023-03-06T19:29:53.812Z,11.87
2023-03-06T19:32:38.806Z,12.01
2023-03-06T19:35:24.080Z,11.57
2023-03-06T19:38:08.990Z,11.87
2023-03-06T19:40:53.966Z,12.08
2023-03-06T19:43:38.887Z,12.48
2023-03-06T19:46:23.819Z,13.20
2023-03-06T19:49:08.726Z,13.20
2023-03-06T19:51:53.683Z,13.14
2023-03-06T19:54:38.562Z,13.34
2023-03-06T19:57:23.568Z,13.40
2023-03-06T20:00:08.462Z,13.60
2023-03-06T20:02:53.165Z,13.54
2023-03-06T20:05:38.300Z,13.34
2023-03-06T20:08:23.371Z,13.06
2023-03-06T20:11:08.317Z,13.98
2023-03-06T20:13:53.067Z,13.50
2023-03-06T20:16:37.936Z,13.35
2023-03-06T20:19:22.785Z,13.49
2023-03-06T20:22:07.879Z,13.62
2023-03-06T20:24:52.818Z,13.49
2023-03-06T20:27:37.659Z,13.65
2023-03-06T20:30:22.659Z,13.50
2023-03-06T20:33:07.578Z,13.90
2023-03-06T20:35:52.551Z,13.41
2023-03-06T20:38:37.500Z,14.30
2023-03-06T20:41:22.216Z,15.08
2023-03-06T20:44:07.113Z,14.52
2023-03-06T20:46:51.942Z,14.29
2023-03-06T20:49:36.850Z,14.97
2023-03-06T20:52:21.803Z,14.64
2023-03-06T20:55:06.738Z,14.56
2023-03-06T20:57:51.707Z,14.35
2023-03-06T21:00:36.737Z,14.48
2023-03-06T21:03:21.661Z,14.83
2023-03-06T21:06:06.731Z,14.63
2023-03-06T21:08:51.478Z,15.03
2023-03-06T21:11:36.444Z,14.46
2023-03-06T21:14:21.425Z,14.28
2023-03-06T21:17:06.193Z,13.93
2023-03-06T21:19:51.243Z,14.31
2023-03-06T21:22:36.087Z,14.64
2023-03-06T21:25:21.055Z,14.47
2023-03-06T21:28:05.928Z,14.11
2023-03-06T21:30:50.974Z,14.08
2023-03-06T21:33:35.784Z,14.22
2023-03-06T21:36:20.601Z,14.13
2023-03-06T21:39:05.403Z,14.15
2023-03-06T21:41:50.283Z,14.41
2023-03-06T21:44:35.444Z,14.13
2023-03-06T21:47:20.524Z,14.05
2023-03-06T21:50:05.376Z,14.23
2023-03-06T21:52:50.123Z,13.80
2023-03-06T21:55:35.041Z,13.91
2023-03-06T21:58:19.902Z,13.80
2023-03-06T22:01:04.946Z,14.25
2023-03-06T22:03:50.009Z,13.71
2023-03-06T22:06:34.903Z,13.99
2023-03-06T22:09:19.868Z,13.66
2023-03-06T22:12:04.692Z,13.60
2023-03-06T22:14:49.520Z,13.75
2023-03-06T22:17:34.401Z,14.09
2023-03-06T22:20:19.192Z,14.44
2023-03-06T22:23:04.047Z,14.37
2023-03-06T22:25:48.897Z,14.17
2023-03-06T22:28:33.813Z,14.80
2023-03-06T22:31:18.720Z,14.11
2023-03-06T22:34:03.562Z,14.10
2023-03-06T22:36:48.335Z,13.53
2023-03-06T22:39:33.259Z,13.77
2023-03-06T22:42:18.109Z,14.19
2023-03-06T22:45:03.051Z,14.07
2023-03-06T22:47:47.779Z,14.41
2023-03-06T22:50:32.715Z,14.11
2023-03-06T22:53:17.637Z,14.17
2023-03-06T22:56:02.601Z,13.76
2023-03-06T22:58:47.558Z,14.33
2023-03-06T23:01:32.481Z,14.14
2023-03-06T23:04:17.540Z,13.44
2023-03-06T23:07:02.779Z,13.19
2023-03-06T23:09:47.720Z,13.55
2023-03-06T23:12:32.632Z,13.50
2023-03-06T23:15:17.696Z,14.07
2023-03-06T23:18:02.461Z,13.67
2023-03-06T23:20:47.423Z,12.92
2023-03-06T23:23:32.530Z,12.93
2023-03-06T23:26:17.323Z,13.73
2023-03-06T23:29:02.207Z,13.15
2023-03-06T23:31:47.059Z,13.34
2023-03-06T23:34:32.000Z,13.71
2023-03-06T23:37:16.928Z,13.23
2023-03-06T23:40:01.878Z,13.65
2023-03-06T23:42:46.773Z,13.34
2023-03-06T23:45:31.753Z,13.21
2023-03-06T23:48:16.700Z,13.96
2023-03-06T23:51:01.604Z,13.43
2023-03-06T23:53:46.483Z,13.47
2023-03-06T23:56:31.292Z,13.44
2023-03-06T23:59:16.247Z,13.50
